createdAt,value
2023-04-10T00:02:25.781Z,6.37
2023-04-10T00:04:53.612Z,6.70
2023-04-10T00:07:21.254Z,6.60
2023-04-10T00:09:49.127Z,6.60
2023-04-10T00:12:16.861Z,6.43
2023-04-10T00:14:45.786Z,6.37
2023-04-10T00:17:13.456Z,6.03
2023-04-10T00:19:41.064Z,6.10
2023-04-10T00:22:08.667Z,6.87
2023-04-10T00:24:36.263Z,6.63
2023-04-10T00:27:03.956Z,10.50
2023-04-10T00:29:31.551Z,9.70
2023-04-10T00:32:00.556Z,9.57
2023-04-10T00:34:28.169Z,8.00
2023-04-10T00:36:55.921Z,7.30
2023-04-10T00:39:23.499Z,7.37
2023-04-10T00:41:51.123Z,6.73
2023-04-10T00:44:18.745Z,7.03
2023-04-10T00:46:46.296Z,6.67
2023-04-10T00:49:15.405Z,6.70
2023-04-10T00:51:43.720Z,6.17
2023-04-10T00:54:12.076Z,5.93
2023-04-10T00:56:39.671Z,6.60
2023-04-10T00:59:07.551Z,6.13
2023-04-10T01:01:35.388Z,6.90
2023-04-10T01:04:03.624Z,6.63
2023-04-10T01:06:42.914Z,6.37
2023-04-10T01:09:14.514Z,6.50
2023-04-10T01:11:49.250Z,6.37
2023-04-10T01:14:22.909Z,6.63
2023-04-10T01:16:54.875Z,6.70
2023-04-10T01:19:31.469Z,6.90
2023-04-10T01:22:02.210Z,6.77
2023-04-10T01:24:43.998Z,7.10
2023-04-10T01:27:17.174Z,7.27
2023-04-10T01:29:48.790Z,7.03
2023-04-10T01:32:18.977Z,7.77
2023-04-10T01:34:48.174Z,7.37
2023-04-10T01:37:19.268Z,7.80
2023-04-10T01:39:48.681Z,7.83
2023-04-10T01:42:16.779Z,7.13
2023-04-10T01:44:48.627Z,8.17
2023-04-10T01:47:17.967Z,8.13
2023-04-10T01:49:48.308Z,8.53
2023-04-10T01:52:16.460Z,8.47
2023-04-10T01:54:45.697Z,8.63
2023-04-10T01:57:15.005Z,8.57
2023-04-10T01:59:42.780Z,9.70
2023-04-10T02:02:12.191Z,9.47
2023-04-10T02:04:40.468Z,10.50
2023-04-10T02:07:11.192Z,9.83
2023-04-10T02:09:45.775Z,9.67
2023-04-10T02:12:17.639Z,9.00
2023-04-10T02:14:47.831Z,9.17
2023-04-10T02:17:19.703Z,8.77
2023-04-10T02:19:48.220Z,9.70
2023-04-10T02:22:16.896Z,9.37
2023-04-10T02:24:44.460Z,8.97
2023-04-10T02:27:12.128Z,8.83
2023-04-10T02:29:39.806Z,9.37
2023-04-10T02:32:07.871Z,8.70
2023-04-10T02:34:36.788Z,9.67
2023-04-10T02:37:04.399Z,9.70
2023-04-10T02:39:31.988Z,9.23
2023-04-10T02:41:59.561Z,8.77
2023-04-10T02:44:27.178Z,8.97
2023-04-10T02:46:54.797Z,9.37
2023-04-10T02:49:22.458Z,8.40
2023-04-10T02:51:51.438Z,9.13
2023-04-10T02:54:18.997Z,8.53
2023-04-10T02:56:47.252Z,8.93
2023-04-10T02:59:14.856Z,9.03
2023-04-10T03:01:42.720Z,8.70
2023-04-10T03:04:10.598Z,8.70
2023-04-10T03:06:38.282Z,8.93
2023-04-10T03:09:07.207Z,8.47
2023-04-10T03:11:35.772Z,8.73
2023-04-10T03:14:03.693Z,8.60
2023-04-10T03:16:31.299Z,7.90
2023-04-10T03:18:59.443Z,8.83
2023-04-10T03:21:27.310Z,8.23
2023-04-10T03:23:55.076Z,8.47
2023-04-10T03:26:24.349Z,8.10
2023-04-10T03:28:52.208Z,8.43
2023-04-10T03:31:19.920Z,8.60
2023-04-10T03:33:47.576Z,8.63
2023-04-10T03:36:15.283Z,7.80
2023-04-10T03:38:42.946Z,8.53
2023-04-10T03:41:10.888Z,8.63
2023-04-10T03:43:40.175Z,8.53
2023-04-10T03:46:08.070Z,9.00
2023-04-10T03:48:35.683Z,8.43
2023-04-10T03:51:03.364Z,9.03
2023-04-10T03:53:35.883Z,8.67
2023-04-10T03:56:03.882Z,8.37
2023-04-10T03:58:31.482Z,8.80
2023-04-10T04:01:00.427Z,8.73
2023-04-10T04:03:28.219Z,9.07
2023-04-10T04:05:56.216Z,9.30
2023-04-10T04:08:23.824Z,8.83
2023-04-10T04:10:51.363Z,8.77
2023-04-10T04:13:18.880Z,8.60
2023-04-10T04:15:47.784Z,8.40
2023-04-10T04:18:16.781Z,8.27
2023-04-10T04:20:44.545Z,8.57
2023-04-10T04:23:12.193Z,9.10
2023-04-10T04:25:39.782Z,8.33
2023-04-10T04:28:07.490Z,9.10
2023-04-10T04:30:35.273Z,8.53
2023-04-10T04:33:02.920Z,8.83
2023-04-10T04:35:31.923Z,8.63
2023-04-10T04:37:59.557Z,9.17
2023-04-10T04:40:27.152Z,8.57
2023-04-10T04:42:54.799Z,9.13
2023-04-10T04:45:22.461Z,8.97
2023-04-10T04:47:50.272Z,9.17
2023-04-10T04:50:18.056Z,9.23
2023-04-10T04:52:46.983Z,8.90
2023-04-10T04:55:14.601Z,8.27
2023-04-10T04:57:42.384Z,8.50
2023-04-10T05:00:10.924Z,8.90
2023-04-10T05:02:38.621Z,8.77
2023-04-10T05:05:06.995Z,8.60
2023-04-10T05:07:34.581Z,9.67
2023-04-10T05:10:03.514Z,9.30
2023-04-10T05:12:31.162Z,8.83
2023-04-10T05:14:58.717Z,8.90
2023-04-10T05:17:26.378Z,8.37
2023-04-10T05:19:53.964Z,8.47
2023-04-10T05:22:21.556Z,9.20
2023-04-10T05:24:49.189Z,10.10
2023-04-10T05:27:18.306Z,8.87
2023-04-10T05:29:45.852Z,9.67
2023-04-10T05:32:13.468Z,9.60
2023-04-10T05:34:41.064Z,10.07
2023-04-10T05:37:09.247Z,10.43
2023-04-10T05:39:37.056Z,11.40
2023-04-10T05:42:04.825Z,11.07
2023-04-10T05:44:33.799Z,10.87
2023-04-10T05:47:01.364Z,9.73
2023-04-10T05:49:28.982Z,9.87
2023-04-10T05:51:56.637Z,9.23
2023-04-10T05:54:24.245Z,9.20
2023-04-10T05:56:51.812Z,9.63
2023-04-10T05:59:19.454Z,9.73
2023-04-10T06:01:48.452Z,9.70
2023-04-10T06:04:16.251Z,9.83
2023-04-10T06:06:44.022Z,9.60
2023-04-10T06:09:11.611Z,9.80
2023-04-10T06:11:39.255Z,10.97
2023-04-10T06:14:06.986Z,10.53
2023-04-10T06:16:35.078Z,9.80
2023-04-10T06:19:04.108Z,10.33
2023-04-10T06:21:31.775Z,10.23
2023-04-10T06:23:59.366Z,10.53
2023-04-10T06:26:27.015Z,9.73
2023-04-10T06:28:54.980Z,9.17
2023-04-10T06:31:23.034Z,10.20
2023-04-10T06:33:50.786Z,10.10
2023-04-10T06:36:19.821Z,10.30
2023-04-10T06:38:47.410Z,9.50
2023-04-10T06:41:15.074Z,9.80
2023-04-10T06:43:42.673Z,9.50
2023-04-10T06:46:10.429Z,9.53
2023-04-10T06:48:38.088Z,9.30
2023-04-10T06:51:05.936Z,9.07
2023-04-10T06:53:34.818Z,9.47
2023-04-10T06:56:03.594Z,9.33
2023-04-10T06:58:31.706Z,8.83
2023-04-10T07:01:04.180Z,9.70
2023-04-10T07:03:32.452Z,9.43
2023-04-10T07:06:01.978Z,9.60
2023-04-10T07:08:29.660Z,9.40
2023-04-10T07:10:58.996Z,9.30
2023-04-10T07:13:27.071Z,9.73
2023-04-10T07:15:54.774Z,8.73
2023-04-10T07:18:22.418Z,9.63
2023-04-10T07:20:51.863Z,9.73
2023-04-10T07:23:20.353Z,9.60
2023-04-10T07:25:48.018Z,9.63
2023-04-10T07:28:17.020Z,10.27
2023-04-10T07:30:44.749Z,9.87
2023-04-10T07:33:12.573Z,10.13
2023-04-10T07:35:40.784Z,9.80
2023-04-10T07:38:08.429Z,9.40
2023-04-10T07:40:36.080Z,9.73
2023-04-10T07:43:03.694Z,10.47
2023-04-10T07:45:33.030Z,10.33
2023-04-10T07:48:02.156Z,9.73
2023-04-10T07:50:30.476Z,10.30
2023-04-10T07:52:59.142Z,10.10
2023-04-10T07:55:26.690Z,10.13
2023-04-10T07:57:54.295Z,10.83
2023-04-10T08:00:21.998Z,9.83
2023-04-10T08:02:51.344Z,9.50
2023-04-10T08:05:19.432Z,9.23
2023-04-10T08:07:47.058Z,9.40
2023-04-10T08:10:14.686Z,8.93
2023-04-10T08:12:42.311Z,8.93
2023-04-10T08:15:10.645Z,9.17
2023-04-10T08:17:38.265Z,9.50
2023-04-10T08:20:09.094Z,8.37
2023-04-10T08:22:36.705Z,8.73
2023-04-10T08:25:04.826Z,9.00
2023-04-10T08:27:32.402Z,8.87
2023-04-10T08:30:00.057Z,7.57
2023-04-10T08:32:27.699Z,7.43
2023-04-10T08:34:55.443Z,7.83
2023-04-10T08:37:26.292Z,7.93
2023-04-10T08:39:54.042Z,7.47
2023-04-10T08:42:22.257Z,8.30
2023-04-10T08:44:50.248Z,7.97
2023-04-10T08:47:22.295Z,7.63
2023-04-10T08:49:55.393Z,8.00
2023-04-10T08:52:26.895Z,7.30
2023-04-10T08:54:56.023Z,7.40
2023-04-10T08:57:23.955Z,7.03
2023-04-10T08:59:52.507Z,7.30
2023-04-10T09:02:20.382Z,6.27
2023-04-10T09:04:50.282Z,6.70
2023-04-10T09:07:18.334Z,6.77
2023-04-10T09:09:47.304Z,7.03
2023-04-10T09:12:15.588Z,6.43
2023-04-10T09:14:44.237Z,6.83
2023-04-10T09:17:14.505Z,7.87
2023-04-10T09:19:42.786Z,6.43
2023-04-10T09:22:10.858Z,7.27
2023-04-10T09:24:39.399Z,7.20
2023-04-10T09:27:08.836Z,7.33
2023-04-10T09:29:42.461Z,6.93
2023-04-10T09:32:10.056Z,7.30
2023-04-10T09:34:52.987Z,7.10
2023-04-10T09:37:22.746Z,7.30
2023-04-10T09:39:50.658Z,6.40
2023-04-10T09:42:31.309Z,6.90
2023-04-10T09:44:59.005Z,6.70
2023-04-10T09:47:27.075Z,6.33
2023-04-10T09:49:55.596Z,6.50
2023-04-10T09:52:27.099Z,6.33
2023-04-10T09:54:55.241Z,6.53
2023-04-10T09:57:25.349Z,6.90
2023-04-10T09:59:54.773Z,6.27
2023-04-10T10:02:23.810Z,6.70
2023-04-10T10:04:52.519Z,6.10
2023-04-10T10:07:21.826Z,5.97
2023-04-10T10:09:51.626Z,6.30
2023-04-10T10:12:25.799Z,6.57
2023-04-10T10:14:58.711Z,6.00
2023-04-10T10:17:29.026Z,6.53
2023-04-10T10:20:03.876Z,5.97
2023-04-10T10:22:31.591Z,6.50
2023-04-10T10:25:00.513Z,6.97
2023-04-10T10:27:30.051Z,5.73
2023-04-10T10:29:57.765Z,5.87
2023-04-10T10:32:25.868Z,4.43
2023-04-10T10:34:54.307Z,4.50
2023-04-10T10:37:22.250Z,4.03
2023-04-10T10:39:57.372Z,3.93
2023-04-10T10:42:32.010Z,4.10
2023-04-10T10:45:08.319Z,4.50
2023-04-10T10:47:41.728Z,3.80
2023-04-10T10:50:09.837Z,3.97
2023-04-10T10:52:45.257Z,4.80
2023-04-10T10:55:37.653Z,3.80
2023-04-10T10:58:07.911Z,3.80
2023-04-10T11:01:09.833Z,3.63
2023-04-10T11:03:47.857Z,4.30
2023-04-10T11:06:17.172Z,4.10
2023-04-10T11:08:46.052Z,4.43
2023-04-10T11:11:18.648Z,3.57
2023-04-10T11:14:18.856Z,3.57
2023-04-10T11:16:49.649Z,4.07
2023-04-10T11:19:31.001Z,4.07
2023-04-10T11:22:21.155Z,3.20
2023-04-10T11:24:59.322Z,3.60
2023-04-10T11:27:49.382Z,3.40
2023-04-10T11:30:42.261Z,2.97
2023-04-10T11:33:10.058Z,3.30
2023-04-10T11:35:37.808Z,3.50
2023-04-10T11:38:17.320Z,3.40
2023-04-10T11:40:59.358Z,3.30
2023-04-10T11:43:27.379Z,3.00
2023-04-10T11:46:04.600Z,3.13
2023-04-10T11:48:32.753Z,2.93
2023-04-10T11:51:02.021Z,3.43
2023-04-10T11:53:30.146Z,3.63
2023-04-10T11:55:58.451Z,3.50
2023-04-10T11:58:27.089Z,3.30
2023-04-10T12:01:20.029Z,3.33
2023-04-10T12:03:57.461Z,3.60
2023-04-10T12:06:25.588Z,3.33
2023-04-10T12:08:53.767Z,3.03
2023-04-10T12:11:23.026Z,3.40
2023-04-10T12:13:53.707Z,3.73
2023-04-10T12:16:23.169Z,3.47
2023-04-10T12:18:52.740Z,3.40
2023-04-10T12:21:21.387Z,3.53
2023-04-10T12:23:49.142Z,3.37
2023-04-10T12:26:19.035Z,3.27
2023-04-10T12:28:52.596Z,3.10
2023-04-10T12:31:28.149Z,3.47
2023-04-10T12:33:57.717Z,3.43
2023-04-10T12:36:27.070Z,2.87
2023-04-10T12:39:11.196Z,2.73
2023-04-10T12:41:38.820Z,2.80
2023-04-10T12:44:11.476Z,2.90
2023-04-10T12:46:41.360Z,2.53
2023-04-10T12:49:13.698Z,2.50
2023-04-10T12:52:08.386Z,2.70
2023-04-10T12:55:05.694Z,2.40
2023-04-10T13:00:42.215Z,2.00
2023-04-10T13:03:11.339Z,2.30
2023-04-10T13:05:39.112Z,2.60
2023-04-10T13:08:06.828Z,2.27
2023-04-10T13:10:34.402Z,2.20
2023-04-10T13:13:07.021Z,2.17
2023-04-10T13:15:35.512Z,2.00
2023-04-10T13:18:08.371Z,2.07
2023-04-10T13:20:37.899Z,2.07
2023-04-10T13:23:05.942Z,2.20
2023-04-10T13:25:34.702Z,2.23
2023-04-10T13:28:03.476Z,2.30
2023-04-10T13:30:31.359Z,1.83
2023-04-10T13:33:02.039Z,2.70
2023-04-10T13:35:29.981Z,2.40
2023-04-10T13:37:59.381Z,2.60
2023-04-10T13:40:27.157Z,2.20
2023-04-10T13:42:54.955Z,2.40
2023-04-10T13:45:22.968Z,2.20
2023-04-10T13:47:50.765Z,2.10
2023-04-10T13:50:18.932Z,2.30
2023-04-10T13:52:46.500Z,2.37
2023-04-10T13:55:15.529Z,2.40
2023-04-10T13:57:43.323Z,2.40
2023-04-10T14:00:11.953Z,2.13
2023-04-10T14:02:41.302Z,2.00
2023-04-10T14:05:13.956Z,2.10
2023-04-10T14:07:41.729Z,2.10
2023-04-10T14:10:10.984Z,3.40
2023-04-10T14:12:40.782Z,2.27
2023-04-10T14:15:22.323Z,2.30
2023-04-10T14:17:50.782Z,2.20
2023-04-10T14:20:20.264Z,2.20
2023-04-10T14:22:48.453Z,2.07
2023-04-10T14:25:16.951Z,2.07
2023-04-10T14:27:46.814Z,2.10
2023-04-10T14:30:15.014Z,2.30
2023-04-10T14:32:44.101Z,2.20
2023-04-10T14:35:11.917Z,1.90
2023-04-10T14:37:41.071Z,2.00
2023-04-10T14:40:11.851Z,1.63
2023-04-10T14:42:40.044Z,1.60
2023-04-10T14:45:10.558Z,1.90
2023-04-10T14:47:38.934Z,1.90
2023-04-10T14:50:11.137Z,1.90
2023-04-10T14:52:38.827Z,1.50
2023-04-10T14:55:07.215Z,1.70
2023-04-10T14:57:36.039Z,1.73
2023-04-10T15:00:03.928Z,1.87
2023-04-10T15:02:33.108Z,1.90
2023-04-10T15:05:00.855Z,1.70
2023-04-10T15:07:28.603Z,1.77
2023-04-10T15:09:58.196Z,1.67
2023-04-10T15:12:28.396Z,1.93
2023-04-10T15:14:58.062Z,1.90
2023-04-10T15:17:26.154Z,1.80
2023-04-10T15:19:55.563Z,1.70
2023-04-10T15:22:23.571Z,1.80
2023-04-10T15:24:51.624Z,1.80
2023-04-10T15:27:21.508Z,1.77
2023-04-10T15:29:52.711Z,1.50
2023-04-10T15:32:21.885Z,1.60
2023-04-10T15:34:51.579Z,1.53
2023-04-10T15:37:24.214Z,1.70
2023-04-10T15:39:56.044Z,1.80
2023-04-10T15:42:24.016Z,1.80
2023-04-10T15:44:52.480Z,1.63
2023-04-10T15:47:20.619Z,1.77
2023-04-10T15:49:52.908Z,1.60
2023-04-10T15:52:22.432Z,1.73
2023-04-10T15:54:55.743Z,1.80
2023-04-10T15:57:24.337Z,1.40
2023-04-10T15:59:53.923Z,1.40
2023-04-10T16:02:21.798Z,1.63
2023-04-10T16:04:50.344Z,1.73
2023-04-10T16:07:22.729Z,1.70
2023-04-10T16:09:58.565Z,2.03
2023-04-10T16:12:26.655Z,1.70
2023-04-10T16:14:54.815Z,1.67
2023-04-10T16:17:22.693Z,1.60
2023-04-10T16:19:50.964Z,1.50
2023-04-10T16:22:18.827Z,1.63
2023-04-10T16:24:47.513Z,1.60
2023-04-10T16:27:16.778Z,1.70
2023-04-10T16:29:46.826Z,1.60
2023-04-10T16:32:14.880Z,1.50
2023-04-10T16:34:42.756Z,1.40
2023-04-10T16:37:17.375Z,1.80
2023-04-10T16:39:46.183Z,1.57
2023-04-10T16:42:22.136Z,1.77
2023-04-10T16:44:50.168Z,1.47
2023-04-10T16:47:17.852Z,1.70
2023-04-10T16:49:46.229Z,1.70
2023-04-10T16:52:13.808Z,1.70
2023-04-10T16:54:41.853Z,1.70
2023-04-10T16:57:11.951Z,1.77
2023-04-10T16:59:40.932Z,1.70
2023-04-10T17:02:08.620Z,1.80
2023-04-10T17:04:36.230Z,1.90
2023-04-10T17:07:03.774Z,1.73
2023-04-10T17:09:32.361Z,1.50
2023-04-10T17:12:00.107Z,1.60
2023-04-10T17:14:27.895Z,1.80
2023-04-10T17:16:57.012Z,1.90
2023-04-10T17:19:24.621Z,2.13
2023-04-10T17:21:53.004Z,1.90
2023-04-10T17:24:20.653Z,1.93
2023-04-10T17:26:48.327Z,1.67
2023-04-10T17:29:15.877Z,1.90
2023-04-10T17:31:43.472Z,1.90
2023-04-10T17:34:13.249Z,1.80
2023-04-10T17:36:42.779Z,1.77
2023-04-10T17:39:14.207Z,1.57
2023-04-10T17:41:42.010Z,1.57
2023-04-10T17:44:11.744Z,1.77
2023-04-10T17:46:39.385Z,1.70
2023-04-10T17:49:07.046Z,1.83
2023-04-10T17:51:36.184Z,1.87
2023-04-10T17:54:04.101Z,1.97
2023-04-10T17:56:31.681Z,1.90
2023-04-10T17:59:00.460Z,1.90
2023-04-10T18:01:30.089Z,2.00
2023-04-10T18:03:59.078Z,1.73
2023-04-10T18:06:27.554Z,2.00
2023-04-10T18:08:57.187Z,2.03
2023-04-10T18:11:25.305Z,2.10
2023-04-10T18:13:52.967Z,1.70
2023-04-10T18:16:20.619Z,1.90
2023-04-10T18:18:48.316Z,2.10
2023-04-10T18:21:16.037Z,1.93
2023-04-10T18:23:44.532Z,2.00
2023-04-10T18:26:14.110Z,2.10
2023-04-10T18:28:43.239Z,2.13
2023-04-10T18:31:12.551Z,2.43
2023-04-10T18:33:40.183Z,2.17
2023-04-10T18:36:10.671Z,2.60
2023-04-10T18:38:41.064Z,2.63
2023-04-10T18:41:08.784Z,2.67
2023-04-10T18:43:38.321Z,2.67
2023-04-10T18:46:06.557Z,2.13
2023-04-10T18:48:35.109Z,2.20
2023-04-10T18:51:02.771Z,2.20
2023-04-10T18:53:30.377Z,2.10
2023-04-10T18:55:58.014Z,2.30
2023-04-10T18:58:25.693Z,2.00
2023-04-10T19:00:55.562Z,1.90
2023-04-10T19:03:24.120Z,1.87
2023-04-10T19:05:51.924Z,2.00
2023-04-10T19:08:19.917Z,1.80
2023-04-10T19:10:51.043Z,1.83
2023-04-10T19:13:18.827Z,2.30
2023-04-10T19:15:48.097Z,2.10
2023-04-10T19:18:47.552Z,2.40
2023-04-10T19:21:24.109Z,2.07
2023-04-10T19:23:53.012Z,2.37
2023-04-10T19:26:20.649Z,2.20
2023-04-10T19:28:50.513Z,2.40
2023-04-10T19:31:18.274Z,2.10
2023-04-10T19:33:47.409Z,2.00
2023-04-10T19:36:16.201Z,2.17
2023-04-10T19:38:44.891Z,2.13
2023-04-10T19:41:16.077Z,1.80
2023-04-10T19:43:43.921Z,2.03
2023-04-10T19:46:17.733Z,2.20
2023-04-10T19:48:47.036Z,2.27
2023-04-10T19:51:14.662Z,2.07
2023-04-10T19:53:42.627Z,2.17
2023-04-10T19:56:10.505Z,2.37
2023-04-10T19:58:41.121Z,2.13
2023-04-10T20:01:10.330Z,2.33
2023-04-10T20:03:38.544Z,2.40
2023-04-10T20:06:08.747Z,1.93
2023-04-10T20:08:36.542Z,1.77
2023-04-10T20:11:06.186Z,2.57
2023-04-10T20:13:34.448Z,1.90
2023-04-10T20:16:02.165Z,2.00
2023-04-10T20:18:29.946Z,2.40
2023-04-10T20:20:57.561Z,2.00
2023-04-10T20:23:26.581Z,2.00
2023-04-10T20:25:54.219Z,1.83
2023-04-10T20:28:21.869Z,1.83
2023-04-10T20:30:49.570Z,1.63
2023-04-10T20:33:17.323Z,1.87
2023-04-10T20:35:44.980Z,1.90
2023-04-10T20:38:12.616Z,1.70
2023-04-10T20:40:41.535Z,1.67
2023-04-10T20:43:12.062Z,1.80
2023-04-10T20:45:39.815Z,1.90
2023-04-10T20:48:09.032Z,1.97
2023-04-10T20:50:37.448Z,1.97
2023-04-10T20:53:05.032Z,1.50
2023-04-10T20:55:32.663Z,1.77
2023-04-10T20:58:01.691Z,1.80
2023-04-10T21:00:30.864Z,1.57
2023-04-10T21:02:58.827Z,1.83
2023-04-10T21:05:26.529Z,1.70
2023-04-10T21:07:54.265Z,1.57
2023-04-10T21:10:22.104Z,1.77
2023-04-10T21:12:49.718Z,1.90
2023-04-10T21:15:18.934Z,1.77
2023-04-10T21:17:46.853Z,1.60
2023-04-10T21:20:14.569Z,1.50
2023-04-10T21:22:42.165Z,1.80
2023-04-10T21:25:10.500Z,1.50
2023-04-10T21:27:38.106Z,1.60
2023-04-10T21:30:06.754Z,1.90
2023-04-10T21:32:35.688Z,1.70
2023-04-10T21:35:03.323Z,1.90
2023-04-10T21:37:30.953Z,1.77
2023-04-10T21:39:58.686Z,1.70
2023-04-10T21:42:26.362Z,1.90
2023-04-10T21:44:54.398Z,1.80
2023-04-10T21:47:22.100Z,1.53
2023-04-10T21:49:51.950Z,2.00
2023-04-10T21:52:22.583Z,1.90
2023-04-10T21:54:50.281Z,1.87
2023-04-10T21:57:17.965Z,1.90
2023-04-10T21:59:45.588Z,2.20
2023-04-10T22:02:13.245Z,2.00
2023-04-10T22:04:51.496Z,2.03
2023-04-10T22:07:22.655Z,1.90
2023-04-10T22:09:50.391Z,2.20
2023-04-10T22:12:17.945Z,1.60
2023-04-10T22:14:46.065Z,1.83
2023-04-10T22:17:13.796Z,2.00
2023-04-10T22:19:41.641Z,1.83
2023-04-10T22:22:09.354Z,1.90
2023-04-10T22:24:38.287Z,1.90
2023-04-10T22:27:06.202Z,2.20
2023-04-10T22:29:34.799Z,1.90
2023-04-10T22:32:02.686Z,2.40
2023-04-10T22:34:30.647Z,2.00
2023-04-10T22:36:58.530Z,2.27
2023-04-10T22:39:26.449Z,2.20
2023-04-10T22:41:55.760Z,2.30
2023-04-10T22:44:26.392Z,1.93
2023-04-10T22:46:54.167Z,2.20
2023-04-10T22:49:22.306Z,1.97
2023-04-10T22:51:49.910Z,2.30
2023-04-10T22:54:17.793Z,2.30
2023-04-10T22:56:45.464Z,2.23
2023-04-10T22:59:17.319Z,2.10
2023-04-10T23:01:44.966Z,2.20
2023-04-10T23:04:12.632Z,2.43
2023-04-10T23:06:41.149Z,2.20
2023-04-10T23:09:08.895Z,2.27
2023-04-10T23:11:37.294Z,2.20
2023-04-10T23:14:04.959Z,2.27
2023-04-10T23:16:34.322Z,2.33
2023-04-10T23:19:02.391Z,2.00
2023-04-10T23:21:31.611Z,2.73
2023-04-10T23:24:00.323Z,1.33
2023-04-10T23:26:31.778Z,1.53
2023-04-10T23:29:02.620Z,1.20
2023-04-10T23:31:30.898Z,1.17
2023-04-10T23:34:01.378Z,0.83
2023-04-10T23:36:30.010Z,1.07
2023-04-10T23:38:58.529Z,0.67
2023-04-10T23:41:26.663Z,1.00
2023-04-10T23:43:57.106Z,0.73
2023-04-10T23:46:25.135Z,0.63
2023-04-10T23:48:54.161Z,0.60
2023-04-10T23:51:24.337Z,0.80
2023-04-10T23:53:52.997Z,0.73
2023-04-10T23:56:21.473Z,0.60
2023-04-10T23:58:49.782Z,0.63
